createdAt,value
2022-10-23T00:01:58.928Z,11.1
2022-10-23T00:06:58.945Z,11.1
2022-10-23T00:11:59.257Z,11.1
2022-10-23T00:16:59.303Z,11.1
2022-10-23T00:21:58.933Z,11.0
2022-10-23T00:26:58.947Z,11.0
2022-10-23T00:31:59.059Z,11.0
2022-10-23T00:36:59.026Z,11.0
2022-10-23T00:41:58.946Z,11.0
2022-10-23T00:46:58.982Z,11.0
2022-10-23T00:51:58.928Z,11.0
2022-10-23T00:56:59.126Z,11.0
2022-10-23T01:01:59.045Z,10.9
2022-10-23T01:06:58.928Z,10.9
2022-10-23T01:11:59.411Z,10.8
2022-10-23T01:16:58.966Z,10.8
2022-10-23T01:21:58.763Z,10.7
2022-10-23T01:26:59.046Z,10.7
2022-10-23T01:31:58.909Z,10.6
2022-10-23T01:36:59.023Z,10.6
2022-10-23T01:41:58.760Z,10.6
2022-10-23T01:46:58.829Z,10.6
2022-10-23T01:51:58.849Z,10.6
2022-10-23T01:56:58.985Z,10.6
2022-10-23T02:01:58.873Z,10.5
2022-10-23T02:06:58.741Z,10.5
2022-10-23T02:11:58.913Z,10.5
2022-10-23T02:16:58.806Z,10.5
2022-10-23T02:21:58.733Z,10.5
2022-10-23T02:26:58.869Z,10.5
2022-10-23T02:31:58.720Z,10.5
2022-10-23T02:36:58.768Z,10.5
2022-10-23T02:41:58.846Z,10.5
2022-10-23T02:46:58.895Z,10.5
2022-10-23T02:51:58.665Z,10.5
2022-10-23T02:56:58.704Z,10.5
2022-10-23T03:01:58.783Z,10.5
2022-10-23T03:06:58.666Z,10.5
2022-10-23T03:11:58.752Z,10.5
2022-10-23T03:16:58.603Z,10.5
2022-10-23T03:21:58.629Z,10.5
2022-10-23T03:26:58.883Z,10.5
2022-10-23T03:31:58.667Z,10.5
2022-10-23T03:36:58.568Z,10.5
2022-10-23T03:41:58.779Z,10.5
2022-10-23T03:46:58.704Z,10.5
2022-10-23T03:51:58.698Z,10.5
2022-10-23T03:56:58.538Z,10.5
2022-10-23T04:01:58.777Z,10.5
2022-10-23T04:06:58.579Z,10.5
2022-10-23T04:11:58.884Z,10.5
2022-10-23T04:16:58.654Z,10.5
2022-10-23T04:21:58.643Z,10.4
2022-10-23T04:26:58.516Z,10.4
2022-10-23T04:31:58.608Z,10.4
2022-10-23T04:36:58.469Z,10.4
2022-10-23T04:41:58.460Z,10.4
2022-10-23T04:46:58.616Z,10.3
2022-10-23T04:51:58.474Z,10.3
2022-10-23T04:56:58.671Z,10.2
2022-10-23T05:01:58.615Z,10.1
2022-10-23T05:06:58.489Z,10.0
2022-10-23T05:11:58.667Z,9.9
2022-10-23T05:16:59.636Z,9.9
2022-10-23T05:21:58.396Z,9.9
2022-10-23T05:26:58.447Z,9.9
2022-10-23T05:31:58.379Z,9.9
2022-10-23T05:36:58.600Z,9.9
2022-10-23T05:41:58.641Z,9.9
2022-10-23T05:46:58.555Z,9.9
2022-10-23T05:51:58.378Z,9.9
2022-10-23T05:56:58.828Z,9.9
2022-10-23T06:01:58.685Z,9.9
2022-10-23T06:06:58.423Z,9.9
2022-10-23T06:11:58.360Z,10.0
2022-10-23T06:16:58.418Z,10.0
2022-10-23T06:21:59.617Z,10.0
2022-10-23T06:26:58.496Z,10.1
2022-10-23T06:31:58.335Z,10.1
2022-10-23T06:36:58.335Z,10.1
2022-10-23T06:41:58.592Z,10.1
2022-10-23T06:46:58.317Z,10.1
2022-10-23T06:51:58.248Z,10.2
2022-10-23T06:56:58.423Z,10.2
2022-10-23T07:01:58.366Z,10.2
2022-10-23T07:06:58.330Z,10.2
2022-10-23T07:11:58.212Z,10.3
2022-10-23T07:16:58.293Z,10.3
2022-10-23T07:21:58.288Z,10.4
2022-10-23T07:26:58.374Z,10.5
2022-10-23T07:31:58.263Z,10.6
2022-10-23T07:36:58.219Z,10.7
2022-10-23T07:41:58.344Z,10.9
2022-10-23T07:46:58.178Z,11.0
2022-10-23T07:51:58.354Z,11.1
2022-10-23T07:56:58.307Z,11.2
2022-10-23T08:01:58.517Z,11.3
2022-10-23T08:06:58.127Z,11.3
2022-10-23T08:11:58.127Z,11.4
2022-10-23T08:16:58.298Z,11.6
2022-10-23T08:21:58.142Z,11.7
2022-10-23T08:26:58.327Z,11.8
2022-10-23T08:31:58.152Z,12.0
2022-10-23T08:36:58.189Z,12.2
2022-10-23T08:41:58.350Z,12.6
2022-10-23T08:46:58.157Z,12.9
2022-10-23T08:51:58.232Z,13.1
2022-10-23T08:56:58.206Z,13.2
2022-10-23T09:01:58.233Z,13.3
2022-10-23T09:06:58.128Z,13.3
2022-10-23T09:11:58.323Z,13.4
2022-10-23T09:16:58.056Z,13.3
2022-10-23T09:21:58.070Z,13.4
2022-10-23T09:26:58.243Z,13.4
2022-10-23T09:31:58.264Z,13.4
2022-10-23T09:36:58.194Z,13.4
2022-10-23T09:41:58.186Z,13.4
2022-10-23T09:46:58.093Z,13.5
2022-10-23T09:51:58.017Z,13.6
2022-10-23T09:56:58.361Z,13.5
2022-10-23T10:01:58.403Z,13.5
2022-10-23T10:06:58.177Z,13.4
2022-10-23T10:11:58.220Z,13.3
2022-10-23T10:16:57.949Z,13.6
2022-10-23T10:21:58.392Z,13.6
2022-10-23T10:26:58.222Z,13.6
2022-10-23T10:31:59.837Z,13.6
2022-10-23T10:36:57.989Z,13.5
2022-10-23T10:41:58.132Z,13.6
2022-10-23T10:46:58.112Z,13.8
2022-10-23T10:51:58.109Z,13.9
2022-10-23T10:56:58.165Z,14.0
2022-10-23T11:01:58.286Z,14.2
2022-10-23T11:06:58.287Z,14.3
2022-10-23T11:11:57.852Z,14.4
2022-10-23T11:16:57.882Z,14.5
2022-10-23T11:21:59.463Z,14.4
2022-10-23T11:26:57.965Z,14.6
2022-10-23T11:31:57.872Z,14.9
2022-10-23T11:36:58.026Z,15.2
2022-10-23T11:41:58.031Z,15.3
2022-10-23T11:46:57.885Z,15.3
2022-10-23T11:51:57.855Z,15.3
2022-10-23T12:01:59.680Z,15.2
2022-10-23T12:07:05.918Z,14.9
2022-10-23T12:11:57.958Z,14.9
2022-10-23T12:16:57.914Z,15.0
2022-10-23T12:21:57.966Z,15.0
2022-10-23T12:26:59.128Z,15.0
2022-10-23T12:31:59.460Z,15.0
2022-10-23T12:36:58.009Z,15.1
2022-10-23T12:41:57.787Z,15.3
2022-10-23T12:46:57.739Z,15.4
2022-10-23T12:51:57.853Z,15.3
2022-10-23T12:56:59.554Z,15.2
2022-10-23T13:01:57.784Z,15.2
2022-10-23T13:06:57.802Z,15.2
2022-10-23T13:11:57.839Z,15.2
2022-10-23T13:16:57.741Z,15.1
2022-10-23T13:21:57.999Z,15.1
2022-10-23T13:26:59.269Z,15.0
2022-10-23T13:31:57.674Z,15.0
2022-10-23T13:36:57.683Z,14.9
2022-10-23T13:46:59.325Z,14.8
2022-10-23T13:51:57.673Z,14.9
2022-10-23T13:56:57.651Z,14.9
2022-10-23T14:01:57.986Z,15.0
2022-10-23T14:12:02.564Z,15.1
2022-10-23T14:16:58.685Z,15.1
2022-10-23T14:21:58.097Z,15.0
2022-10-23T14:26:57.919Z,15.0
2022-10-23T14:31:59.811Z,14.9
2022-10-23T14:37:08.241Z,14.8
2022-10-23T14:42:00.002Z,14.7
2022-10-23T14:46:59.803Z,14.6
2022-10-23T14:51:58.040Z,14.5
2022-10-23T14:56:58.476Z,14.4
2022-10-23T15:01:58.413Z,14.3
2022-10-23T15:07:00.071Z,14.1
2022-10-23T15:11:57.972Z,14.0
2022-10-23T15:16:57.735Z,13.8
2022-10-23T15:21:57.920Z,13.7
2022-10-23T15:26:58.261Z,13.5
2022-10-23T15:31:58.933Z,13.4
2022-10-23T15:36:58.698Z,13.2
2022-10-23T15:41:58.794Z,13.0
2022-10-23T15:46:58.789Z,12.8
2022-10-23T15:51:58.066Z,12.7
2022-10-23T15:56:57.781Z,12.5
2022-10-23T16:01:59.831Z,12.4
2022-10-23T16:06:58.168Z,12.2
2022-10-23T16:11:58.794Z,12.1
2022-10-23T16:16:57.494Z,12.0
2022-10-23T16:22:03.595Z,11.8
2022-10-23T16:26:57.996Z,11.5
2022-10-23T16:31:57.520Z,11.4
2022-10-23T16:36:57.575Z,11.2
2022-10-23T16:41:59.802Z,11.1
2022-10-23T16:46:59.034Z,11.0
2022-10-23T16:51:58.756Z,10.9
2022-10-23T16:56:58.615Z,10.8
2022-10-23T17:01:58.593Z,10.8
2022-10-23T17:06:58.383Z,10.7
2022-10-23T17:11:58.134Z,10.6
2022-10-23T17:16:59.261Z,10.6
2022-10-23T17:21:58.589Z,10.6
2022-10-23T17:26:58.552Z,10.6
2022-10-23T17:31:58.793Z,10.6
2022-10-23T17:36:58.535Z,10.6
2022-10-23T17:41:57.861Z,10.6
2022-10-23T17:47:00.080Z,10.6
2022-10-23T18:01:58.317Z,10.6
2022-10-23T18:06:59.360Z,10.6
2022-10-23T18:12:01.259Z,10.5
2022-10-23T18:16:57.362Z,10.4
2022-10-23T18:21:58.216Z,10.4
2022-10-23T18:26:57.732Z,10.4
2022-10-23T18:31:59.300Z,10.3
2022-10-23T18:36:59.792Z,10.3
2022-10-23T18:41:57.342Z,10.3
2022-10-23T18:46:57.504Z,10.3
2022-10-23T18:51:57.485Z,10.3
2022-10-23T18:56:57.206Z,10.3
2022-10-23T19:01:57.700Z,10.3
2022-10-23T19:06:57.687Z,10.3
2022-10-23T19:11:57.214Z,10.2
2022-10-23T19:16:57.250Z,10.1
2022-10-23T19:21:57.461Z,10.1
2022-10-23T19:26:57.190Z,10.0
2022-10-23T19:31:57.615Z,9.9
2022-10-23T19:36:57.649Z,9.9
2022-10-23T19:41:57.383Z,9.8
2022-10-23T19:46:57.224Z,9.7
2022-10-23T19:51:59.080Z,9.6
2022-10-23T19:56:57.738Z,9.6
2022-10-23T20:01:57.349Z,9.5
2022-10-23T20:07:03.691Z,9.4
2022-10-23T20:11:59.129Z,9.3
2022-10-23T20:16:57.020Z,9.3
2022-10-23T20:21:57.562Z,9.2
2022-10-23T20:26:56.984Z,9.2
2022-10-23T20:31:58.127Z,9.1
2022-10-23T20:36:57.177Z,9.1
2022-10-23T20:41:57.251Z,9.1
2022-10-23T20:46:56.957Z,9.0
2022-10-23T20:51:56.987Z,9.0
2022-10-23T20:56:56.910Z,8.9
2022-10-23T21:01:57.034Z,8.9
2022-10-23T21:07:09.340Z,8.9
2022-10-23T21:11:57.067Z,8.9
2022-10-23T21:16:58.636Z,8.8
2022-10-23T21:21:56.939Z,8.7
2022-10-23T21:26:57.020Z,8.6
2022-10-23T21:31:57.036Z,8.6
2022-10-23T21:37:12.845Z,8.6
2022-10-23T21:41:58.150Z,8.5
2022-10-23T21:46:58.091Z,8.4
2022-10-23T21:51:56.866Z,8.4
2022-10-23T21:56:56.867Z,8.3
2022-10-23T22:01:57.138Z,8.3
2022-10-23T22:06:56.818Z,8.1
2022-10-23T22:11:56.851Z,8.1
2022-10-23T22:16:56.927Z,8.1
2022-10-23T22:21:56.806Z,8.1
2022-10-23T22:26:56.855Z,8.1
2022-10-23T22:31:57.008Z,8.1
2022-10-23T22:36:56.964Z,8.2
2022-10-23T22:41:56.819Z,8.3
2022-10-23T22:46:56.878Z,8.3
2022-10-23T22:51:56.726Z,8.3
2022-10-23T22:56:56.705Z,8.3
2022-10-23T23:01:56.903Z,8.2
2022-10-23T23:06:56.741Z,8.2
2022-10-23T23:11:56.768Z,8.1
2022-10-23T23:16:56.888Z,8.1
2022-10-23T23:21:56.828Z,8.0
2022-10-23T23:26:56.998Z,8.0
2022-10-23T23:31:56.929Z,7.9
2022-10-23T23:36:56.648Z,7.9
2022-10-23T23:41:56.797Z,7.9
2022-10-23T23:46:56.743Z,7.9
2022-10-23T23:51:56.823Z,7.9
2022-10-23T23:56:56.772Z,7.9
